sensor_id;sensor_type;location;lat;lon;timestamp;temperature;humidity
8736;DHT22;4404;49.308;12.178;2023-10-13T07:05:46;15.50;99.90
8736;DHT22;4404;49.308;12.178;2023-10-13T07:07:49;15.50;99.90
8736;DHT22;4404;49.308;12.178;2023-10-13T07:09:57;15.50;99.90
8736;DHT22;4404;49.308;12.178;2023-10-13T07:12:00;15.40;99.90
8736;DHT22;4404;49.308;12.178;2023-10-13T07:14:03;15.40;99.90
8736;DHT22;4404;49.308;12.178;2023-10-13T07:16:11;15.40;99.90
8736;DHT22;4404;49.308;12.178;2023-10-13T07:18:13;15.40;99.90
8736;DHT22;4404;49.308;12.178;2023-10-13T07:20:18;15.40;99.90
8736;DHT22;4404;49.308;12.178;2023-10-13T07:22:25;15.50;99.90
8736;DHT22;4404;49.308;12.178;2023-10-13T07:24:29;15.70;99.90
8736;DHT22;4404;49.308;12.178;2023-10-13T07:26:40;15.60;99.90
8736;DHT22;4404;49.308;12.178;2023-10-13T07:28:46;15.60;99.90
8736;DHT22;4404;49.308;12.178;2023-10-13T07:30:48;15.60;99.90
8736;DHT22;4404;49.308;12.178;2023-10-13T07:33:07;15.70;99.90
8736;DHT22;4404;49.308;12.178;2023-10-13T07:35:15;15.90;99.90
8736;DHT22;4404;49.308;12.178;2023-10-13T07:37:20;16.00;99.90
8736;DHT22;4404;49.308;12.178;2023-10-13T07:39:28;16.20;99.90
8736;DHT22;4404;49.308;12.178;2023-10-13T07:41:34;16.30;99.90
8736;DHT22;4404;49.308;12.178;2023-10-13T07:43:37;16.30;99.90
8736;DHT22;4404;49.308;12.178;2023-10-13T07:45:40;16.30;99.90
8736;DHT22;4404;49.308;12.178;2023-10-13T07:47:43;16.30;99.90
8736;DHT22;4404;49.308;12.178;2023-10-13T07:49:45;16.20;99.90
8736;DHT22;4404;49.308;12.178;2023-10-13T07:51:51;16.30;99.90
8736;DHT22;4404;49.308;12.178;2023-10-13T07:53:57;16.40;99.90
8736;DHT22;4404;49.308;12.178;2023-10-13T07:56:09;16.40;99.90
8736;DHT22;4404;49.308;12.178;2023-10-13T07:58:12;16.40;99.90
8736;DHT22;4404;49.308;12.178;2023-10-13T08:00:14;16.50;99.90
8736;DHT22;4404;49.308;12.178;2023-10-13T08:02:27;16.60;99.90
8736;DHT22;4404;49.308;12.178;2023-10-13T08:04:49;16.70;99.90
8736;DHT22;4404;49.308;12.178;2023-10-13T08:06:52;16.60;99.90
8736;DHT22;4404;49.308;12.178;2023-10-13T08:09:03;16.60;99.90
8736;DHT22;4404;49.308;12.178;2023-10-13T08:11:14;16.70;99.90
8736;DHT22;4404;49.308;12.178;2023-10-13T08:13:25;16.80;99.90
8736;DHT22;4404;49.308;12.178;2023-10-13T08:34:52;17.40;99.90
8736;DHT22;4404;49.308;12.178;2023-10-13T08:37:26;17.40;99.90
8736;DHT22;4404;49.308;12.178;2023-10-13T08:39:35;17.40;99.90
8736;DHT22;4404;49.308;12.178;2023-10-13T08:41:51;17.60;99.90
8736;DHT22;4404;49.308;12.178;2023-10-13T08:44:12;17.70;99.90
8736;DHT22;4404;49.308;12.178;2023-10-13T08:46:35;17.80;99.90
8736;DHT22;4404;49.308;12.178;2023-10-13T08:49:06;17.90;99.90
8736;DHT22;4404;49.308;12.178;2023-10-13T08:51:16;17.90;99.90
8736;DHT22;4404;49.308;12.178;2023-10-13T08:53:45;18.00;99.90
8736;DHT22;4404;49.308;12.178;2023-10-13T08:55:53;18.10;99.90
8736;DHT22;4404;49.308;12.178;2023-10-13T08:58:03;18.30;99.90
8736;DHT22;4404;49.308;12.178;2023-10-13T09:00:14;18.40;99.90
8736;DHT22;4404;49.308;12.178;2023-10-13T09:02:29;18.50;99.90
8736;DHT22;4404;49.308;12.178;2023-10-13T09:04:45;18.60;99.90
8736;DHT22;4404;49.308;12.178;2023-10-13T09:06:50;18.70;99.90
8736;DHT22;4404;49.308;12.178;2023-10-13T09:09:08;18.80;99.90
8736;DHT22;4404;49.308;12.178;2023-10-13T09:11:27;18.90;99.90
8736;DHT22;4404;49.308;12.178;2023-10-13T09:13:38;19.00;99.90
8736;DHT22;4404;49.308;12.178;2023-10-13T09:15:47;19.20;99.90
8736;DHT22;4404;49.308;12.178;2023-10-13T09:18:01;19.30;99.90
8736;DHT22;4404;49.308;12.178;2023-10-13T09:20:15;19.40;99.90
8736;DHT22;4404;49.308;12.178;2023-10-13T09:22:34;19.50;99.90
8736;DHT22;4404;49.308;12.178;2023-10-13T09:24:37;19.60;99.90
8736;DHT22;4404;49.308;12.178;2023-10-13T09:26:43;19.80;99.90
8736;DHT22;4404;49.308;12.178;2023-10-13T09:28:48;19.80;99.90
8736;DHT22;4404;49.308;12.178;2023-10-13T09:30:55;19.90;99.90
8736;DHT22;4404;49.308;12.178;2023-10-13T09:33:01;20.10;99.90
8736;DHT22;4404;49.308;12.178;2023-10-13T09:35:11;20.20;99.90
8736;DHT22;4404;49.308;12.178;2023-10-13T09:37:20;20.10;99.90
8736;DHT22;4404;49.308;12.178;2023-10-13T09:39:27;20.20;99.90
8736;DHT22;4404;49.308;12.178;2023-10-13T09:41:40;20.20;99.90
8736;DHT22;4404;49.308;12.178;2023-10-13T09:43:44;20.30;99.90
8736;DHT22;4404;49.308;12.178;2023-10-13T09:45:47;20.30;99.90
8736;DHT22;4404;49.308;12.178;2023-10-13T09:48:04;20.40;99.90
8736;DHT22;4404;49.308;12.178;2023-10-13T09:50:16;20.50;99.90
8736;DHT22;4404;49.308;12.178;2023-10-13T09:52:25;20.50;99.90
8736;DHT22;4404;49.308;12.178;2023-10-13T09:54:33;20.60;99.90
8736;DHT22;4404;49.308;12.178;2023-10-13T09:56:42;20.70;99.90
8736;DHT22;4404;49.308;12.178;2023-10-13T09:59:02;20.80;99.90
8736;DHT22;4404;49.308;12.178;2023-10-13T10:01:19;20.90;99.90
8736;DHT22;4404;49.308;12.178;2023-10-13T10:03:31;21.00;99.90
8736;DHT22;4404;49.308;12.178;2023-10-13T10:05:42;21.10;99.90
8736;DHT22;4404;49.308;12.178;2023-10-13T10:07:54;21.20;99.90
8736;DHT22;4404;49.308;12.178;2023-10-13T10:10:00;21.30;99.90
8736;DHT22;4404;49.308;12.178;2023-10-13T10:12:13;21.40;99.90
8736;DHT22;4404;49.308;12.178;2023-10-13T10:14:23;21.40;99.90
8736;DHT22;4404;49.308;12.178;2023-10-13T10:16:44;21.40;99.90
8736;DHT22;4404;49.308;12.178;2023-10-13T10:18:59;21.40;99.90
8736;DHT22;4404;49.308;12.178;2023-10-13T10:21:05;21.40;99.90
8736;DHT22;4404;49.308;12.178;2023-10-13T10:23:09;21.40;99.90
8736;DHT22;4404;49.308;12.178;2023-10-13T10:25:29;21.60;99.90
8736;DHT22;4404;49.308;12.178;2023-10-13T10:27:35;21.70;99.90
8736;DHT22;4404;49.308;12.178;2023-10-13T10:29:37;21.70;99.90
8736;DHT22;4404;49.308;12.178;2023-10-13T10:31:39;21.80;99.90
8736;DHT22;4404;49.308;12.178;2023-10-13T10:33:44;21.80;99.90
8736;DHT22;4404;49.308;12.178;2023-10-13T10:35:59;21.80;99.90
8736;DHT22;4404;49.308;12.178;2023-10-13T10:38:09;21.90;99.90
8736;DHT22;4404;49.308;12.178;2023-10-13T10:40:25;22.00;99.90
8736;DHT22;4404;49.308;12.178;2023-10-13T10:42:50;22.00;99.90
8736;DHT22;4404;49.308;12.178;2023-10-13T10:44:53;21.90;99.90
8736;DHT22;4404;49.308;12.178;2023-10-13T10:47:09;22.00;99.90
8736;DHT22;4404;49.308;12.178;2023-10-13T10:49:12;22.00;99.90
8736;DHT22;4404;49.308;12.178;2023-10-13T10:51:17;22.00;99.90
8736;DHT22;4404;49.308;12.178;2023-10-13T10:53:23;22.10;99.90
8736;DHT22;4404;49.308;12.178;2023-10-13T10:55:35;22.20;99.90
8736;DHT22;4404;49.308;12.178;2023-10-13T10:57:38;22.30;99.90
8736;DHT22;4404;49.308;12.178;2023-10-13T10:59:43;22.40;99.90
8736;DHT22;4404;49.308;12.178;2023-10-13T11:01:45;22.50;99.90
8736;DHT22;4404;49.308;12.178;2023-10-13T11:03:59;22.60;99.90
8736;DHT22;4404;49.308;12.178;2023-10-13T11:06:12;22.50;99.90
8736;DHT22;4404;49.308;12.178;2023-10-13T11:08:23;22.50;99.90
8736;DHT22;4404;49.308;12.178;2023-10-13T11:10:32;22.60;99.90
8736;DHT22;4404;49.308;12.178;2023-10-13T11:12:40;22.60;99.90
8736;DHT22;4404;49.308;12.178;2023-10-13T11:14:45;22.80;99.90
8736;DHT22;4404;49.308;12.178;2023-10-13T11:16:49;22.90;99.90
8736;DHT22;4404;49.308;12.178;2023-10-13T11:19:01;22.90;99.90
8736;DHT22;4404;49.308;12.178;2023-10-13T11:21:05;23.00;99.90
8736;DHT22;4404;49.308;12.178;2023-10-13T11:23:11;23.20;99.90
8736;DHT22;4404;49.308;12.178;2023-10-13T11:25:21;23.30;99.90
8736;DHT22;4404;49.308;12.178;2023-10-13T11:27:30;23.40;99.90
8736;DHT22;4404;49.308;12.178;2023-10-13T11:29:57;23.50;99.90
8736;DHT22;4404;49.308;12.178;2023-10-13T11:32:05;23.60;99.90
8736;DHT22;4404;49.308;12.178;2023-10-13T11:34:10;23.60;99.90
8736;DHT22;4404;49.308;12.178;2023-10-13T11:36:12;23.50;99.90
8736;DHT22;4404;49.308;12.178;2023-10-13T11:38:18;23.60;99.90
8736;DHT22;4404;49.308;12.178;2023-10-13T11:40:26;23.60;99.90
8736;DHT22;4404;49.308;12.178;2023-10-13T11:42:42;23.70;99.90
8736;DHT22;4404;49.308;12.178;2023-10-13T11:44:47;23.70;99.90
8736;DHT22;4404;49.308;12.178;2023-10-13T11:47:03;23.70;99.90
8736;DHT22;4404;49.308;12.178;2023-10-13T11:49:31;23.80;99.90
8736;DHT22;4404;49.308;12.178;2023-10-13T11:51:38;23.80;99.90
8736;DHT22;4404;49.308;12.178;2023-10-13T11:53:40;23.80;99.90
8736;DHT22;4404;49.308;12.178;2023-10-13T11:55:42;23.80;99.90
8736;DHT22;4404;49.308;12.178;2023-10-13T11:57:44;23.80;99.90
8736;DHT22;4404;49.308;12.178;2023-10-13T11:59:46;23.70;99.90
8736;DHT22;4404;49.308;12.178;2023-10-13T12:02:22;23.80;99.90
8736;DHT22;4404;49.308;12.178;2023-10-13T12:04:41;23.90;99.90
8736;DHT22;4404;49.308;12.178;2023-10-13T12:06:49;24.00;99.90
8736;DHT22;4404;49.308;12.178;2023-10-13T12:09:05;24.00;99.90
8736;DHT22;4404;49.308;12.178;2023-10-13T12:11:20;24.00;99.90
8736;DHT22;4404;49.308;12.178;2023-10-13T12:13:39;24.10;99.80
8736;DHT22;4404;49.308;12.178;2023-10-13T12:15:41;24.20;99.80
8736;DHT22;4404;49.308;12.178;2023-10-13T12:17:53;24.30;98.30
8736;DHT22;4404;49.308;12.178;2023-10-13T12:19:58;24.50;98.80
8736;DHT22;4404;49.308;12.178;2023-10-13T12:22:00;24.60;98.60
8736;DHT22;4404;49.308;12.178;2023-10-13T12:24:06;24.70;97.20
8736;DHT22;4404;49.308;12.178;2023-10-13T12:26:12;24.80;97.00
8736;DHT22;4404;49.308;12.178;2023-10-13T12:28:23;24.80;96.60
8736;DHT22;4404;49.308;12.178;2023-10-13T12:30:27;24.60;96.40
8736;DHT22;4404;49.308;12.178;2023-10-13T12:32:50;24.50;96.50
8736;DHT22;4404;49.308;12.178;2023-10-13T12:35:00;24.70;96.10
8736;DHT22;4404;49.308;12.178;2023-10-13T12:37:32;24.70;95.70
8736;DHT22;4404;49.308;12.178;2023-10-13T12:39:51;24.70;95.20
8736;DHT22;4404;49.308;12.178;2023-10-13T12:42:10;24.70;94.80
8736;DHT22;4404;49.308;12.178;2023-10-13T12:44:30;24.50;94.40
8736;DHT22;4404;49.308;12.178;2023-10-13T12:46:50;24.30;94.80
8736;DHT22;4404;49.308;12.178;2023-10-13T12:49:12;24.30;95.20
8736;DHT22;4404;49.308;12.178;2023-10-13T12:51:37;24.40;95.10
8736;DHT22;4404;49.308;12.178;2023-10-13T12:53:53;24.30;94.90
8736;DHT22;4404;49.308;12.178;2023-10-13T12:55:56;24.50;95.60
8736;DHT22;4404;49.308;12.178;2023-10-13T12:57:58;24.70;95.50
8736;DHT22;4404;49.308;12.178;2023-10-13T13:00:00;24.80;95.30
8736;DHT22;4404;49.308;12.178;2023-10-13T13:02:03;25.00;94.80
8736;DHT22;4404;49.308;12.178;2023-10-13T13:04:08;25.20;94.40
8736;DHT22;4404;49.308;12.178;2023-10-13T13:06:21;25.30;93.60
8736;DHT22;4404;49.308;12.178;2023-10-13T13:08:25;25.50;92.50
8736;DHT22;4404;49.308;12.178;2023-10-13T13:10:28;25.40;92.50
8736;DHT22;4404;49.308;12.178;2023-10-13T13:12:36;25.40;92.10
8736;DHT22;4404;49.308;12.178;2023-10-13T13:14:39;25.50;91.80
8736;DHT22;4404;49.308;12.178;2023-10-13T13:16:46;25.60;91.50
8736;DHT22;4404;49.308;12.178;2023-10-13T13:18:49;25.60;91.30
8736;DHT22;4404;49.308;12.178;2023-10-13T13:20:51;25.50;90.90
8736;DHT22;4404;49.308;12.178;2023-10-13T13:22:56;25.50;91.10
8736;DHT22;4404;49.308;12.178;2023-10-13T13:25:03;25.60;91.40
8736;DHT22;4404;49.308;12.178;2023-10-13T13:27:12;25.80;91.50
8736;DHT22;4404;49.308;12.178;2023-10-13T13:29:15;25.90;91.80
8736;DHT22;4404;49.308;12.178;2023-10-13T13:31:17;26.00;91.60
8736;DHT22;4404;49.308;12.178;2023-10-13T13:33:20;26.10;91.20
8736;DHT22;4404;49.308;12.178;2023-10-13T13:35:24;26.10;91.00
8736;DHT22;4404;49.308;12.178;2023-10-13T13:37:34;26.10;91.60
8736;DHT22;4404;49.308;12.178;2023-10-13T13:39:37;26.10;90.30
8736;DHT22;4404;49.308;12.178;2023-10-13T13:41:44;26.20;90.40
8736;DHT22;4404;49.308;12.178;2023-10-13T13:43:48;26.40;90.80
8736;DHT22;4404;49.308;12.178;2023-10-13T13:45:58;26.30;90.80
8736;DHT22;4404;49.308;12.178;2023-10-13T13:48:01;26.30;90.00
8736;DHT22;4404;49.308;12.178;2023-10-13T13:50:09;26.40;87.70
8736;DHT22;4404;49.308;12.178;2023-10-13T13:52:17;26.40;84.80
8736;DHT22;4404;49.308;12.178;2023-10-13T13:54:22;26.50;84.70
8736;DHT22;4404;49.308;12.178;2023-10-13T13:56:28;26.20;85.70
8736;DHT22;4404;49.308;12.178;2023-10-13T13:58:31;26.20;85.70
8736;DHT22;4404;49.308;12.178;2023-10-13T14:00:36;26.30;84.90
8736;DHT22;4404;49.308;12.178;2023-10-13T14:02:39;26.30;84.10
8736;DHT22;4404;49.308;12.178;2023-10-13T14:04:47;26.30;82.70
8736;DHT22;4404;49.308;12.178;2023-10-13T14:06:51;26.20;83.50
8736;DHT22;4404;49.308;12.178;2023-10-13T14:08:53;26.20;82.70
8736;DHT22;4404;49.308;12.178;2023-10-13T14:10:56;26.20;81.80
8736;DHT22;4404;49.308;12.178;2023-10-13T14:13:43;26.30;81.70
8736;DHT22;4404;49.308;12.178;2023-10-13T14:15:57;26.10;82.50
8736;DHT22;4404;49.308;12.178;2023-10-13T14:17:59;26.10;82.70
8736;DHT22;4404;49.308;12.178;2023-10-13T14:20:07;25.90;83.40
8736;DHT22;4404;49.308;12.178;2023-10-13T14:22:18;25.80;82.60
8736;DHT22;4404;49.308;12.178;2023-10-13T14:24:25;25.90;82.50
8736;DHT22;4404;49.308;12.178;2023-10-13T14:26:29;25.80;82.30
8736;DHT22;4404;49.308;12.178;2023-10-13T14:28:31;25.60;82.90
8736;DHT22;4404;49.308;12.178;2023-10-13T14:30:36;25.60;83.70
8736;DHT22;4404;49.308;12.178;2023-10-13T14:32:39;25.70;84.40
8736;DHT22;4404;49.308;12.178;2023-10-13T14:34:42;25.70;85.50
8736;DHT22;4404;49.308;12.178;2023-10-13T14:36:46;25.80;84.80
8736;DHT22;4404;49.308;12.178;2023-10-13T14:38:49;25.90;85.60
8736;DHT22;4404;49.308;12.178;2023-10-13T14:40:56;25.90;84.70
8736;DHT22;4404;49.308;12.178;2023-10-13T14:42:59;26.00;84.20
8736;DHT22;4404;49.308;12.178;2023-10-13T14:45:01;26.10;84.60
8736;DHT22;4404;49.308;12.178;2023-10-13T14:47:12;26.20;85.00
8736;DHT22;4404;49.308;12.178;2023-10-13T14:49:16;26.30;83.40
8736;DHT22;4404;49.308;12.178;2023-10-13T14:51:19;26.30;81.90
8736;DHT22;4404;49.308;12.178;2023-10-13T14:53:21;26.40;81.60
8736;DHT22;4404;49.308;12.178;2023-10-13T14:55:23;26.30;81.30
8736;DHT22;4404;49.308;12.178;2023-10-13T14:57:38;26.20;81.20
8736;DHT22;4404;49.308;12.178;2023-10-13T14:59:39;26.20;82.00
8736;DHT22;4404;49.308;12.178;2023-10-13T15:01:41;26.20;80.70
8736;DHT22;4404;49.308;12.178;2023-10-13T15:03:43;26.30;80.80
8736;DHT22;4404;49.308;12.178;2023-10-13T15:05:46;26.30;80.00
8736;DHT22;4404;49.308;12.178;2023-10-13T15:07:48;26.40;80.10
8736;DHT22;4404;49.308;12.178;2023-10-13T15:09:51;26.30;79.30
8736;DHT22;4404;49.308;12.178;2023-10-13T15:11:57;26.30;79.00
8736;DHT22;4404;49.308;12.178;2023-10-13T15:13:59;26.30;79.20
8736;DHT22;4404;49.308;12.178;2023-10-13T15:16:12;26.30;79.50
8736;DHT22;4404;49.308;12.178;2023-10-13T15:18:17;26.20;79.70
8736;DHT22;4404;49.308;12.178;2023-10-13T15:20:19;26.20;78.60
8736;DHT22;4404;49.308;12.178;2023-10-13T15:22:23;26.20;78.20
8736;DHT22;4404;49.308;12.178;2023-10-13T15:24:28;26.10;78.10
8736;DHT22;4404;49.308;12.178;2023-10-13T15:26:30;26.10;77.40
8736;DHT22;4404;49.308;12.178;2023-10-13T15:28:38;26.00;79.20
8736;DHT22;4404;49.308;12.178;2023-10-13T15:30:48;26.10;78.50
8736;DHT22;4404;49.308;12.178;2023-10-13T15:32:58;26.00;78.60
8736;DHT22;4404;49.308;12.178;2023-10-13T15:35:01;25.90;79.10
8736;DHT22;4404;49.308;12.178;2023-10-13T15:37:04;25.90;79.90
8736;DHT22;4404;49.308;12.178;2023-10-13T15:41:12;25.90;79.30
8736;DHT22;4404;49.308;12.178;2023-10-13T15:43:22;25.90;79.00
8736;DHT22;4404;49.308;12.178;2023-10-13T15:45:24;25.80;80.00
8736;DHT22;4404;49.308;12.178;2023-10-13T15:47:33;25.60;87.50
8736;DHT22;4404;49.308;12.178;2023-10-13T15:49:36;25.40;90.10
8736;DHT22;4404;49.308;12.178;2023-10-13T15:51:41;25.20;91.30
8736;DHT22;4404;49.308;12.178;2023-10-13T15:53:44;25.00;92.30
8736;DHT22;4404;49.308;12.178;2023-10-13T15:55:48;24.90;92.00
8736;DHT22;4404;49.308;12.178;2023-10-13T15:57:51;24.80;92.10
8736;DHT22;4404;49.308;12.178;2023-10-13T15:59:54;24.50;94.00
8736;DHT22;4404;49.308;12.178;2023-10-13T16:01:57;24.20;94.60
8736;DHT22;4404;49.308;12.178;2023-10-13T16:03:59;23.90;94.80
8736;DHT22;4404;49.308;12.178;2023-10-13T16:06:11;23.70;95.10
8736;DHT22;4404;49.308;12.178;2023-10-13T16:08:13;23.50;95.50
8736;DHT22;4404;49.308;12.178;2023-10-13T16:10:14;23.30;96.00
8736;DHT22;4404;49.308;12.178;2023-10-13T16:12:17;23.20;96.10
8736;DHT22;4404;49.308;12.178;2023-10-13T16:14:20;23.00;96.30
8736;DHT22;4404;49.308;12.178;2023-10-13T16:16:23;22.90;97.00
8736;DHT22;4404;49.308;12.178;2023-10-13T16:18:25;22.70;97.40
8736;DHT22;4404;49.308;12.178;2023-10-13T16:20:30;22.50;97.60
8736;DHT22;4404;49.308;12.178;2023-10-13T16:22:36;22.30;98.00
8736;DHT22;4404;49.308;12.178;2023-10-13T16:24:38;22.10;98.50
8736;DHT22;4404;49.308;12.178;2023-10-13T16:26:44;21.90;99.10
8736;DHT22;4404;49.308;12.178;2023-10-13T16:28:49;21.70;99.50
8736;DHT22;4404;49.308;12.178;2023-10-13T16:31:00;21.60;99.90
8736;DHT22;4404;49.308;12.178;2023-10-13T16:33:03;21.50;99.90
8736;DHT22;4404;49.308;12.178;2023-10-13T16:35:06;21.40;99.90
8736;DHT22;4404;49.308;12.178;2023-10-13T16:37:11;21.20;99.90
8736;DHT22;4404;49.308;12.178;2023-10-13T16:39:14;21.10;99.90
8736;DHT22;4404;49.308;12.178;2023-10-13T16:41:17;21.00;99.90
8736;DHT22;4404;49.308;12.178;2023-10-13T16:43:19;20.90;99.90
8736;DHT22;4404;49.308;12.178;2023-10-13T16:45:23;20.80;99.90
8736;DHT22;4404;49.308;12.178;2023-10-13T16:47:33;20.80;99.90
8736;DHT22;4404;49.308;12.178;2023-10-13T16:49:35;20.70;99.90
8736;DHT22;4404;49.308;12.178;2023-10-13T16:51:37;20.60;99.90
8736;DHT22;4404;49.308;12.178;2023-10-13T16:53:41;20.60;99.90
8736;DHT22;4404;49.308;12.178;2023-10-13T16:55:47;20.70;99.90
8736;DHT22;4404;49.308;12.178;2023-10-13T16:57:49;20.60;99.90
8736;DHT22;4404;49.308;12.178;2023-10-13T16:59:54;20.70;99.90
8736;DHT22;4404;49.308;12.178;2023-10-13T17:01:56;20.90;99.90
8736;DHT22;4404;49.308;12.178;2023-10-13T17:03:59;20.90;99.90
8736;DHT22;4404;49.308;12.178;2023-10-13T17:06:01;21.20;99.90
8736;DHT22;4404;49.308;12.178;2023-10-13T17:08:04;21.10;99.90
8736;DHT22;4404;49.308;12.178;2023-10-13T17:10:08;21.10;99.90
8736;DHT22;4404;49.308;12.178;2023-10-13T17:12:11;20.90;99.90
8736;DHT22;4404;49.308;12.178;2023-10-13T17:14:12;20.70;99.90
8736;DHT22;4404;49.308;12.178;2023-10-13T17:16:17;20.60;99.90
8736;DHT22;4404;49.308;12.178;2023-10-13T17:18:20;20.50;99.90
8736;DHT22;4404;49.308;12.178;2023-10-13T17:20:24;20.50;99.90
8736;DHT22;4404;49.308;12.178;2023-10-13T17:22:25;20.40;99.90
8736;DHT22;4404;49.308;12.178;2023-10-13T17:24:28;20.30;99.90
8736;DHT22;4404;49.308;12.178;2023-10-13T17:26:30;20.20;99.90
8736;DHT22;4404;49.308;12.178;2023-10-13T17:28:33;20.10;99.90
8736;DHT22;4404;49.308;12.178;2023-10-13T17:30:36;20.30;99.90
8736;DHT22;4404;49.308;12.178;2023-10-13T17:32:39;20.20;99.90
8736;DHT22;4404;49.308;12.178;2023-10-13T17:34:45;20.10;99.90
8736;DHT22;4404;49.308;12.178;2023-10-13T17:36:50;20.00;99.90
8736;DHT22;4404;49.308;12.178;2023-10-13T17:38:52;19.90;99.90
8736;DHT22;4404;49.308;12.178;2023-10-13T17:40:55;19.80;99.90
8736;DHT22;4404;49.308;12.178;2023-10-13T17:42:58;19.80;99.90
8736;DHT22;4404;49.308;12.178;2023-10-13T17:45:00;19.90;99.90
8736;DHT22;4404;49.308;12.178;2023-10-13T17:47:02;19.80;99.90
8736;DHT22;4404;49.308;12.178;2023-10-13T17:49:10;20.00;99.90
8736;DHT22;4404;49.308;12.178;2023-10-13T17:51:13;20.00;99.90
8736;DHT22;4404;49.308;12.178;2023-10-13T17:53:17;20.10;99.90
8736;DHT22;4404;49.308;12.178;2023-10-13T17:55:19;20.10;99.90
8736;DHT22;4404;49.308;12.178;2023-10-13T17:57:21;20.20;99.90
8736;DHT22;4404;49.308;12.178;2023-10-13T17:59:24;20.20;99.90
8736;DHT22;4404;49.308;12.178;2023-10-13T18:01:26;20.20;99.90
8736;DHT22;4404;49.308;12.178;2023-10-13T18:03:32;20.10;99.90
8736;DHT22;4404;49.308;12.178;2023-10-13T18:05:35;20.00;99.90
8736;DHT22;4404;49.308;12.178;2023-10-13T18:07:40;19.90;99.90
8736;DHT22;4404;49.308;12.178;2023-10-13T18:09:44;19.80;99.90
8736;DHT22;4404;49.308;12.178;2023-10-13T18:11:47;19.70;99.90
8736;DHT22;4404;49.308;12.178;2023-10-13T18:13:52;19.60;99.90
8736;DHT22;4404;49.308;12.178;2023-10-13T18:15:53;19.50;99.90
8736;DHT22;4404;49.308;12.178;2023-10-13T18:17:55;19.40;99.90
8736;DHT22;4404;49.308;12.178;2023-10-13T18:19:58;19.30;99.90
8736;DHT22;4404;49.308;12.178;2023-10-13T18:22:00;19.20;99.90
8736;DHT22;4404;49.308;12.178;2023-10-13T18:24:04;19.10;99.90
8736;DHT22;4404;49.308;12.178;2023-10-13T18:26:10;19.00;99.90
8736;DHT22;4404;49.308;12.178;2023-10-13T18:28:13;18.90;99.90
8736;DHT22;4404;49.308;12.178;2023-10-13T18:30:15;18.90;99.90
8736;DHT22;4404;49.308;12.178;2023-10-13T18:32:22;18.90;99.90
8736;DHT22;4404;49.308;12.178;2023-10-13T18:34:24;18.80;99.90
8736;DHT22;4404;49.308;12.178;2023-10-13T18:36:26;18.70;99.90
8736;DHT22;4404;49.308;12.178;2023-10-13T18:38:30;18.60;99.90
8736;DHT22;4404;49.308;12.178;2023-10-13T18:40:31;18.60;99.90
8736;DHT22;4404;49.308;12.178;2023-10-13T18:42:40;18.50;99.90
8736;DHT22;4404;49.308;12.178;2023-10-13T18:44:48;18.50;99.90
8736;DHT22;4404;49.308;12.178;2023-10-13T18:46:55;18.40;99.90
8736;DHT22;4404;49.308;12.178;2023-10-13T18:48:57;18.40;99.90
8736;DHT22;4404;49.308;12.178;2023-10-13T18:51:04;18.30;99.90
8736;DHT22;4404;49.308;12.178;2023-10-13T18:53:08;18.30;99.90
8736;DHT22;4404;49.308;12.178;2023-10-13T18:55:10;18.20;99.90
8736;DHT22;4404;49.308;12.178;2023-10-13T18:57:14;18.20;99.90
8736;DHT22;4404;49.308;12.178;2023-10-13T18:59:16;18.20;99.90
8736;DHT22;4404;49.308;12.178;2023-10-13T19:01:19;18.20;99.90
8736;DHT22;4404;49.308;12.178;2023-10-13T19:03:25;18.10;99.90
8736;DHT22;4404;49.308;12.178;2023-10-13T19:05:27;18.10;99.90
8736;DHT22;4404;49.308;12.178;2023-10-13T19:07:30;18.00;99.90
8736;DHT22;4404;49.308;12.178;2023-10-13T19:09:32;18.00;99.90
8736;DHT22;4404;49.308;12.178;2023-10-13T19:11:35;17.90;99.90
8736;DHT22;4404;49.308;12.178;2023-10-13T19:13:41;17.80;99.90
8736;DHT22;4404;49.308;12.178;2023-10-13T19:15:47;17.80;99.90
8736;DHT22;4404;49.308;12.178;2023-10-13T19:17:50;17.70;99.90
8736;DHT22;4404;49.308;12.178;2023-10-13T19:19:52;17.70;99.90
8736;DHT22;4404;49.308;12.178;2023-10-13T19:21:57;17.70;99.90
8736;DHT22;4404;49.308;12.178;2023-10-13T19:23:59;17.60;99.90
8736;DHT22;4404;49.308;12.178;2023-10-13T19:26:01;17.60;99.90
8736;DHT22;4404;49.308;12.178;2023-10-13T19:28:05;17.60;99.90
8736;DHT22;4404;49.308;12.178;2023-10-13T19:30:10;17.60;99.90
8736;DHT22;4404;49.308;12.178;2023-10-13T19:32:16;17.60;99.90
8736;DHT22;4404;49.308;12.178;2023-10-13T19:34:18;17.50;99.90
8736;DHT22;4404;49.308;12.178;2023-10-13T19:36:20;17.50;99.90
8736;DHT22;4404;49.308;12.178;2023-10-13T19:38:23;17.50;99.90
8736;DHT22;4404;49.308;12.178;2023-10-13T19:40:32;17.40;99.90
8736;DHT22;4404;49.308;12.178;2023-10-13T19:42:35;17.40;99.90
8736;DHT22;4404;49.308;12.178;2023-10-13T19:44:37;17.40;99.90
8736;DHT22;4404;49.308;12.178;2023-10-13T19:46:42;17.50;99.90
8736;DHT22;4404;49.308;12.178;2023-10-13T19:48:49;17.50;99.90
8736;DHT22;4404;49.308;12.178;2023-10-13T19:50:52;17.50;99.90
8736;DHT22;4404;49.308;12.178;2023-10-13T19:52:55;17.50;99.90
8736;DHT22;4404;49.308;12.178;2023-10-13T19:54:58;17.60;99.90
8736;DHT22;4404;49.308;12.178;2023-10-13T19:57:00;17.60;99.90
8736;DHT22;4404;49.308;12.178;2023-10-13T19:59:04;17.70;99.90
8736;DHT22;4404;49.308;12.178;2023-10-13T20:01:10;17.60;99.90
